This is the latest recevied weather packets stored in our database for station/object N7CW. If no packets are shown the sender has not sent any weather packets the latest 10 day(s).
| Time | Temp. | Humidity | Pressure | Rain* | Wind** | Luminosity | Snow |
|---|---|---|---|---|---|---|---|
| 1777814553 | 11.11° C | 41% | 1017.7 hPa | 0 mm | - | 33 W/m² | - |
| 1777814251 | 11.11° C | 41% | 1017.7 hPa | 0 mm | - | 31 W/m² | - |
| 1777813947 | 10.56° C | 42% | 1017.7 hPa | 0 mm | - | 26 W/m² | - |
| 1777813645 | 10.56° C | 42% | 1017.4 hPa | 0 mm | - | 22 W/m² | - |
| 1777813342 | 11.11° C | 42% | 1017.5 hPa | 0 mm | - | 19 W/m² | - |
| 1777813040 | 11.11° C | 42% | 1017.7 hPa | 0 mm | - | 13 W/m² | - |
| 1777812737 | 11.11° C | 41% | 1017.7 hPa | 0 mm | - | 7 W/m² | - |
| 1777812433 | 11.67° C | 40% | 1017.3 hPa | 0 mm | - | 5 W/m² | - |
| 1777812132 | 11.67° C | 40% | 1017.5 hPa | 0 mm | - | 2 W/m² | - |
| 1777811830 | 11.67° C | 40% | 1017.5 hPa | 0 mm | - | 1 W/m² | - |
| 1777811527 | 11.67° C | 39% | 1017.7 hPa | 0 mm | - | 1 W/m² | - |
| 1777811223 | 11.67° C | 40% | 1017.5 hPa | 0 mm | - | 0 W/m² | - |
| 1777810921 | 11.67° C | 40% | 1017.4 hPa | 0 mm | - | 0 W/m² | - |
| 1777810616 | 11.67° C | 38% | 1017.2 hPa | 0 mm | - | 0 W/m² | - |
| 1777810313 | 11.67° C | 38% | 1017.3 hPa | 0 mm | - | 0 W/m² | - |
| 1777810009 | 11.67° C | 39% | 1017.4 hPa | 0 mm | - | 0 W/m² | - |
| 1777809707 | 11.67° C | 39% | 1017.4 hPa | 0 mm | - | 0 W/m² | - |
| 1777809404 | 11.67° C | 39% | 1017.4 hPa | 0 mm | - | 0 W/m² | - |
| 1777809102 | 11.11° C | 40% | 1017.7 hPa | 0 mm | - | 0 W/m² | - |
| 1777808799 | 11.11° C | 40% | 1017.4 hPa | 0 mm | - | 0 W/m² | - |
| 1777808496 | 10.56° C | 41% | 1017.4 hPa | 0 mm | - | 0 W/m² | - |
| 1777808194 | 10.56° C | 42% | 1017.8 hPa | 0 mm | - | 0 W/m² | - |
| 1777807892 | 11.67° C | 41% | 1017.7 hPa | 0 mm | - | 0 W/m² | - |
| 1777807591 | 13.33° C | 38% | 1017.7 hPa | 0 mm | - | 0 W/m² | - |
| 1777807287 | 13.89° C | 33% | 1017.5 hPa | 0 mm | - | 0 W/m² | - |
* Rain latest hour (hover to see other rain measurements)
** Current wind speed in m/s (hover to see current wind gust speed)